Tiempo atmosférico en la estación meteorológica de Antequera, Málaga (400 m.)



Fecha
DESCASC
Temp. máxima en grados centígrados (hora)
DESCASC
Temp. mínima en grados centígrados (hora)
DESCASC
Temp. media en grados centígrados
DESCASC
Racha de viento máxima en m/sg (hora)
DESCASC
Velocidad máxima media en intervalos de 10 minutos(hora)
DESCASC
Precipitaciones diarias en mm
DESCASC
Precipitaciones de 00:00 a 06:00 en mm
DESCASC
Precipitaciones de 06:00 a 12:00 en mm
DESCASC
Precipitaciones de 12:00 a 18:00 en mm
DESCASC
Precipitaciones de 18:00 a 24:00 en mm
DESCASC
23-05-2018 24.4 (15:40) 11.7 (07:40) 18 7.78 (13:40) 3.89 (13:40) 0.1 0 0.1 0 0
22-05-2018 25.5 (18:00) 11 (05:40) 18.3 5.56 (17:00) 2.5 (17:10) 0 0 0 0 0
21-05-2018 20.9 (12:50) 11 (06:30) 15.9 8.06 (13:40) 2.5 (13:40) 17.4 0 0.1 17 0.3
20-05-2018 22.9 (14:40) 11.7 (00:00) 17.3 6.39 (15:00) 2.78 (14:50) 3.4 0 0 0 3.4
19-05-2018 23.4 (15:30) 13.8 (00:00) 18.6 13.06 (15:50) 7.22 (16:00) 0.2 0 0 0.2 0
18-05-2018 22.4 (16:10) 13.4 (00:00) 17.9 10.83 (18:40) 6.11 (18:30) 0 0 0 0 0
17-05-2018 25.2 (15:10) 10 (00:00) 17.6 12.78 (18:20) 7.22 (20:30) 0 0 0 0 0
16-05-2018 23.1 (16:00) 12.2 (00:00) 17.7 11.11 (14:40) 5.83 (14:10) 0 0 0 0 0
15-05-2018 23.9 (16:00) 7.9 (00:00) 15.9 8.89 (14:10) 4.17 (14:00) 0 0 0 0 0
14-05-2018 24.6 (17:20) 6.2 (00:00) 15.4 6.67 (15:00) 3.06 (18:20) 0 0 0 0 0
13-05-2018 20.9 (19:10) 6.9 (00:00) 13.9 6.67 (15:50) 3.33 (06:20) 0 0 0 0 0
12-05-2018 21.4 (17:10) 12.1 (00:00) 16.8 9.72 (18:50) 4.72 (18:10) 0 0 0 0 0
11-05-2018 24.4 (16:00) 9.5 (06:40) 16.9 6.67 (20:30) 3.33 (20:30) 0 0 0 0 0
10-05-2018 23.1 (18:20) 13.1 (00:00) 18.1 6.67 (16:40) 3.61 (20:40) 0 0 0 0 0
09-05-2018 21.1 (15:10) 13.3 (00:00) 17.2 7.78 (18:50) 4.17 (18:50) 0 0 0 0 0
08-05-2018 24.9 (16:30) 10.5 (00:00) 17.7 9.44 (20:00) 3.89 (18:20) 0.3 0 0 0.3 0
07-05-2018 23.8 (18:00) 10.8 (00:00) 17.3 9.17 (11:40) 4.17 (10:40) 0 0 0 0 0
06-05-2018 20.9 (15:00) 13.4 (00:00) 17.1 10.28 (10:40) 5.28 (12:30) 0 0 0 0 0
05-05-2018 22.1 (16:50) 8.3 (00:00) 15.2 7.78 (20:00) 4.72 (13:10) 0 0 0 0 0
04-05-2018 21.1 (13:00) 10.7 (00:00) 15.9 9.17 (14:20) 4.72 (14:20) 1.5 0 0 1.5 0
03-05-2018 21.6 (19:00) 4.8 (00:00) 13.2 6.94 (14:50) 2.78 (16:50) 0 0 0 0 0
02-05-2018 18.9 (17:40) 3.7 (00:00) 11.3 7.78 (18:40) 3.61 (20:30) 0 0 0 0 0
01-05-2018 14.2 (15:20) 5 (07:30) 9.6 13.89 (15:40) 5.83 (16:00) 1.9 0 0 1.9 0
30-04-2018 15.1 (14:30) 6.3 (00:00) 10.7 8.33 (14:10) 3.61 (17:10) 0 0 0 0 0
29-04-2018 16.4 (18:30) 6.8 (00:00) 11.6 9.44 (16:10) 4.72 (16:30) 3 2.9 0.1 0 0
28-04-2018 19.2 (16:10) 8.9 (00:00) 14.1 10.56 (19:40) 4.44 (22:50) 0 0 0 0 0
27-04-2018 23.4 (18:00) 12.1 (00:00) 17.8 8.89 (17:10) 3.33 (18:50) 0 0 0 0 0
26-04-2018 23.7 (16:00) 12 (00:00) 17.9 10.83 (17:10) 5.28 (18:40) 3.6 0.1 0.1 0 3.4
25-04-2018 22.4 (18:30) 11.9 (00:00) 17.1 5.28 (19:30) 2.78 (19:30) 0 0 0 0 0
24-04-2018 24.7 (17:40) 14.5 (00:00) 19.6 7.22 (19:40) 3.61 (19:40) 1.2 1 0 0 0.2

Gráficas

Temp. máximas Temp. mínimas Temp. medias Precipitaciones Rachas de viento máximas Velocidades máximas media en intervalos de 10 minutos

Datos horarios

Fecha y hora oficial Temperatura (ºC) Velocidad del viento (km/h) Dirección del viento Racha (km/h) Dirección de racha Precipitación (mm) Presión (hPa) Tendencia (hPa) Humedad (%)
2018-05-23 23:00:00 18.8 3 Sudoeste 13 Sur 0 966.9 1.1 42
2018-05-23 22:00:00 19.7 4 Sur 10 Sur 0 966.2 0.6 42
2018-05-23 21:00:00 21.1 0 Calma 9 Sudoeste 0 966.3 0.6 40
2018-05-23 20:00:00 22.1 0 Calma 13 Sudoeste 0 965.8 -0.2 39
2018-05-23 19:00:00 23.2 5 Sur 23 Sudeste 0 965.6 -1 38
2018-05-23 18:00:00 23.9 8 Sur 20 Sur 0 965.7 -1.3 37
2018-05-23 17:00:00 24 7 Sur 22 Sur 0 966 -1.4 35
2018-05-23 16:00:00 23.4 12 Sur 22 Sudeste 0 966.6 -0.9 35
2018-05-23 15:00:00 23.3 9 Sur 23 Sur 0 967 -0.6 38
2018-05-23 14:00:00 22.4 8 Sur 28 Sudeste 0 967.4 -0.7 41
2018-05-23 13:00:00 21.8 7 Sudeste 24 Sur 0 967.5 -0.1 42
2018-05-23 12:00:00 19.3 8 Sur 27 Este 0.1 967.6 0.1 47
2018-05-23 11:00:00 19.4 3 Sudeste 16 Sudoeste 0 968.1 0.8 44
2018-05-23 10:00:00 17.9 0 Calma 14 Sudeste 0 967.6 0.6 57
2018-05-23 09:00:00 13.9 0 Calma 16 Sudeste 0 967.5 0.7 79
2018-05-23 08:00:00 12.4 0 Calma 0 Calma 0 967.3 0.5 87
2018-05-23 07:00:00 12.4 0 Calma 2 Oeste 0 967 0 87
2018-05-23 06:00:00 12.4 0 Calma 0 Calma 0 966.8 -0.2 86
2018-05-23 05:00:00 12.8 0 Calma 0 Calma 0 966.8 -0.6 83
2018-05-23 04:00:00 13.8 0 Calma 0 Calma 0 967 -0.6 75
2018-05-23 03:00:00 15 0 Calma 2 Oeste 0 967 -0.6 69
2018-05-23 02:00:00 15.9 0 Calma 5 Noroeste 0 967.4 0.5 65
2018-05-23 01:00:00 16.6 0 Calma 0 Calma 0 967.6 1.4 62
2018-05-23 00:00:00 17.5 0 Calma 2 Oeste 0 967.6 1.7 59
2018-05-22 23:00:00 18.7 0 Calma 4 Oeste 0 966.9 1.4 56
2018-05-22 22:00:00 20 0 Calma 5 Sudeste 0 966.2 0.8 47
2018-05-22 21:00:00 21.5 0 Calma 10 Sur 0 965.9 0.5 43
2018-05-22 20:00:00 23.8 0 Calma 10 Sudoeste 0 965.5 -0.1 38
2018-05-22 19:00:00 24.9 0 Calma 12 Noroeste 0 965.4 -0.6 34
2018-05-22 18:00:00 25.3 2 Oeste 17 Oeste 0 965.4 -1 35
2018-05-22 17:00:00 25 5 Noroeste 20 Noroeste 0 965.6 -0.9 35
2018-05-22 16:00:00 23.2 0 Calma 14 Noroeste 0 966 -0.8 38
2018-05-22 15:00:00 23 3 Noroeste 12 Noroeste 0 966.4 -0.6 39
2018-05-22 14:00:00 22 0 Calma 11 Noroeste 0 966.5 -0.6 44
2018-05-22 13:00:00 20.1 0 Calma 5 Sudeste 0 966.8 -0.3 57
2018-05-22 12:00:00 18.1 0 Calma 5 Sudeste 0 967 0.1 74
2018-05-22 11:00:00 15.1 0 Calma 4 Nordeste 0 967.1 0.4 85
2018-05-22 10:00:00 13.1 0 Calma 8 Nordeste 0 967.1 0.9 94
2018-05-22 09:00:00 12.4 0 Calma 10 Nordeste 0 966.9 1 97
2018-05-22 08:00:00 12 0 Calma 2 Sudeste 0 966.7 0.9 97
2018-05-22 07:00:00 11.7 0 Calma 0 Calma 0 966.2 0.3 96
2018-05-22 06:00:00 11.3 0 Calma 0 Calma 0 965.9 0 97
2018-05-22 05:00:00 11.3 0 Calma 5 Noroeste 0 965.8 -0.5 95
2018-05-22 04:00:00 11.2 0 Calma 8 Oeste 0 965.9 -0.5 94
2018-05-22 03:00:00 11.7 0 Calma 0 Calma 0 965.9 -0.4 93
2018-05-22 02:00:00 12.2 0 Calma 2 Nordeste 0 966.3 0.1 92
2018-05-22 01:00:00 12.9 0 Calma 0 Calma 0 966.4 0.8 91
2018-05-22 00:00:00 13.5 0 Calma 0 Calma 0 966.3 1.1 88
2018-05-21 23:00:00 14.4 0 Calma 0 Calma 0 966.2 1.4 82
2018-05-21 22:00:00 15 0 Calma 2 Oeste 0 965.6 1 83
2018-05-21 21:00:00 15.7 0 Calma 15 Oeste 0 965.2 0.5 79
2018-05-21 20:00:00 17.6 0 Calma 6 Este 0 964.8 0 76
2018-05-21 19:00:00 15.5 3 Sudoeste 14 Sudoeste 0.3 964.6 -0.1 89
2018-05-21 18:00:00 15 0 Calma 6 Nordeste 2.6 964.7 0 88
2018-05-21 17:00:00 14.9 4 Noroeste 14 Noroeste 2.6 964.8 -0.4 85
2018-05-21 16:00:00 18.1 3 Nordeste 14 Este 0 964.7 0 69
2018-05-21 15:00:00 15.2 3 Este 14 Noroeste 5 964.7 -0.3 89
2018-05-21 14:00:00 14 9 Sudoeste 29 Sur 6.8 965.2 0 84
2018-05-21 13:00:00 19.7 2 Noroeste 14 Noroeste 0 964.7 -0.5 56
2018-05-21 12:00:00 19 0 Calma 8 Sudeste 0 965 0.2 60
2018-05-21 11:00:00 16.8 0 Calma 2 Este 0 965.2 0.5 79
2018-05-21 10:00:00 13.5 0 Calma 3 Oeste 0 965.2 0.8 88
2018-05-21 09:00:00 12.2 0 Calma 0 Calma 0.1 964.8 0.5 95
2018-05-21 08:00:00 11.5 0 Calma -- -- 0 964.7 0.3 94
2018-05-21 07:00:00 11.2 0 Calma 0 Calma 0 964.4 -0.1 94
2018-05-21 06:00:00 11.2 0 Calma -- -- 0 964.3 -0.5 94
2018-05-21 05:00:00 11.6 0 Calma -- -- 0 964.4 -0.8 94
2018-05-21 04:00:00 11.8 0 Calma 0 Calma 0 964.5 -0.8 94
2018-05-21 03:00:00 12.7 0 Calma -- -- 0 964.8 -0.7 92
2018-05-21 02:00:00 13.3 0 Calma 2 Sudoeste 0 965.2 -0.1 92
2018-05-21 01:00:00 14.1 0 Calma 0 Calma 0 965.3 0.7 93
2018-05-21 00:00:00 14.1 0 Calma 0 Calma 0 965.5 0.4 93
2018-05-20 23:00:00 14 0 Calma 12 Nordeste 0 965.3 -0.4 93
2018-05-20 22:00:00 13.9 8 Nordeste 14 Nordeste 0 964.6 -1.2 94
2018-05-20 21:00:00 15.1 0 Calma 2 Nordeste 0.1 965.1 0.1 92
2018-05-20 20:00:00 14.7 0 Calma 12 Oeste 1.2 965.7 1.2 91
2018-05-20 19:00:00 14.8 4 Oeste 12 Oeste 2.1 965.8 1.1 91
2018-05-20 18:00:00 15.8 6 Noroeste 18 Oeste 0 965 0.2 79
2018-05-20 17:00:00 17.2 4 Oeste 21 Sudoeste 0 964.5 -0.9 67
2018-05-20 16:00:00 19 6 Oeste 20 Sudoeste 0 964.7 -1.4 57
2018-05-20 15:00:00 21.3 8 Sur 23 Sur 0 964.8 -1.5 52
2018-05-20 14:00:00 21.4 0 Calma 9 Sudeste 0 965.4 -0.8 50
2018-05-20 13:00:00 20.8 0 Calma 12 Nordeste 0 966.1 -0.6 51
2018-05-20 12:00:00 21 3 Este 12 Este 0 966.3 -0.3 51
2018-05-20 11:00:00 19.4 0 Calma 7 Sur 0 966.2 -0.4 58
2018-05-20 10:00:00 17.2 0 Calma 2 Sudeste 0 966.7 0.4 70
2018-05-20 09:00:00 14.9 0 Calma 0 Calma 0 966.6 0.5 81
2018-05-20 08:00:00 12.9 0 Calma 0 Calma 0 966.6 0.2 89
2018-05-20 07:00:00 12.4 0 Calma 3 Norte 0 966.3 -0.4 89
2018-05-20 06:00:00 12.2 0 Calma 3 Nordeste 0 966.1 -1.3 89
2018-05-20 05:00:00 11.9 0 Calma 0 Calma 0 966.4 -1.3 88
2018-05-20 04:00:00 13 0 Calma 3 Noroeste 0 966.7 -1.3 83
2018-05-20 03:00:00 13.1 0 Calma 0 Calma 0 967.4 -0.9 82
2018-05-20 02:00:00 13.5 0 Calma -- -- 0 967.7 -0.1 80
2018-05-20 01:00:00 14.4 0 Calma 0 Calma 0 968 1 75
2018-05-20 00:00:00 15.6 0 Calma 7 Sudeste 0 968.3 1.2 73
2018-05-19 23:00:00 16.4 0 Calma 9 Sudeste 0 967.8 1 70
2018-05-19 22:00:00 17.1 0 Calma 12 Sur 0 967 0.6 69
2018-05-19 21:00:00 17.7 6 Sur 18 Sudeste 0 967.1 0.6 67
2018-05-19 20:00:00 18.9 9 Sudeste 18 Sudeste 0 966.8 -0.8 63
2018-05-19 19:00:00 20.2 0 Calma 12 Sudoeste 0 966.4 -1.6 58
2018-05-19 18:00:00 18.6 4 Sudeste 20 Sudeste 0.2 966.5 -0.4 61
2018-05-19 17:00:00 16.5 0 Calma 41 Este 0 967.6 0 74
2018-05-19 16:00:00 18.7 26 Este 47 Este 0 968 0.2 54
2018-05-19 15:00:00 22.2 13 Sur 28 Sur 0 966.9 -1.1 51
2018-05-19 14:00:00 21.8 10 Sur 28 Sur 0 967.6 -0.3 51
2018-05-19 13:00:00 21.5 8 Sudeste 26 Sur 0 967.8 0 52
2018-05-19 12:00:00 20.8 13 Sudeste 24 Sudeste 0 968 0.5 54
2018-05-19 11:00:00 19.9 9 Sudeste 22 Sudeste 0 967.9 0.5 54
2018-05-19 10:00:00 18.8 9 Este 18 Este 0 967.8 0.9 59
2018-05-19 09:00:00 16.9 0 Calma 10 Nordeste 0 967.5 0.6 69
2018-05-19 08:00:00 15.2 2 Este 9 Este 0 967.4 0.3 74
2018-05-19 07:00:00 15.1 5 Sur 14 Sur 0 966.9 -0.3 71
2018-05-19 06:00:00 15.7 7 Sur 17 Sudoeste 0 966.9 -0.6 70
2018-05-19 05:00:00 15.6 2 Este 22 Nordeste 0 967.1 -0.7 70
2018-05-19 04:00:00 15.8 0 Calma 14 Noroeste 0 967.2 -0.7 71
2018-05-19 03:00:00 15 3 Este 12 Sur 0 967.5 -0.1 74
2018-05-19 02:00:00 15.2 7 Este 12 Este 0 967.8 0.2 72
2018-05-19 01:00:00 15.6 0 Calma 12 Sur 0 967.9 1 68
2018-05-19 00:00:00 15.2 0 Calma 15 Sur 0 967.6 0.8 66
2018-05-18 23:00:00 16.1 0 Calma 21 Sudeste 0 967.6 1.3 63
2018-05-18 22:00:00 17.1 8 Sur 22 Sur 0 966.9 0.5 53
2018-05-18 21:00:00 17.7 7 Sur 32 Sudeste 0 966.8 0.5 47
2018-05-18 20:00:00 18.4 17 Sur 34 Sudeste 0 966.3 0 45
2018-05-18 19:00:00 19.5 16 Sudeste 39 Sudeste 0 966.4 0 44
2018-05-18 18:00:00 20.7 18 Sudeste 34 Sur 0 966.3 -0.7 41
2018-05-18 17:00:00 21.6 17 Sudeste 34 Sur 0 966.3 -1.1 40
2018-05-18 16:00:00 21.9 18 Sudeste 37 Sur 0 966.4 -1.3 42
2018-05-18 15:00:00 21.7 16 Sudeste 36 Sur 0 967 -0.6 43
2018-05-18 14:00:00 21.8 15 Sudeste 33 Sudeste 0 967.4 -0.1 41
2018-05-18 13:00:00 21.1 15 Sur 33 Sur 0 967.7 0.3 47
2018-05-18 12:00:00 20.2 16 Sur 31 Sur 0 967.6 0.6 51
2018-05-18 11:00:00 18.5 14 Sur 28 Sur 0 967.5 0.6 58
2018-05-18 10:00:00 17.1 16 Sudeste 35 Sur 0 967.4 1 60
2018-05-18 09:00:00 16.3 3 Sudeste 17 Sur 0 967 0.5 65
2018-05-18 08:00:00 14.8 9 Sur 21 Sur 0 966.9 0.4 71
2018-05-18 07:00:00 14.5 4 Sur 16 Sur 0 966.4 -0.6 75
2018-05-18 06:00:00 13.4 0 Calma 10 Sur 0 966.5 -0.9 81
2018-05-18 05:00:00 13.5 3 Noroeste 14 Sudeste 0 966.5 -1 83
2018-05-18 04:00:00 14.1 0 Calma 6 Sur 0 967 -0.7 81
2018-05-18 03:00:00 14.3 0 Calma 10 Sudeste 0 967.4 -0.3 81
2018-05-18 02:00:00 14.1 0 Calma 9 Sudoeste 0 967.5 0.5 82
2018-05-18 01:00:00 14.5 4 Sur 30 Sudeste 0 967.7 1.6 80
2018-05-18 00:00:00 14.8 13 Sur 37 Sur 0 967.7 1.9 76
2018-05-17 23:00:00 15.5 17 Sur 44 Sudeste 0 967 1.9 70
2018-05-17 22:00:00 15.9 21 Sur 42 Sur 0 966.1 1.2 69
2018-05-17 21:00:00 16.9 18 Sur 45 Sudeste 0 965.8 1.2 62
2018-05-17 20:00:00 18 24 Sudeste 42 Sudeste 0 965.1 0.7 58
2018-05-17 19:00:00 19.9 25 Sudeste 46 Sudeste 0 964.9 0.7 50
2018-05-17 18:00:00 21.6 19 Sudeste 39 Sudeste 0 964.6 0.4 45
2018-05-17 17:00:00 22.2 21 Sudeste 40 Sudeste 0 964.4 0.1 44
2018-05-17 16:00:00 23.6 14 Sur 33 Sur 0 964.2 -0.5 41
2018-05-17 15:00:00 24.4 4 Sur 21 Sur 0 964.2 -0.5 38
2018-05-17 14:00:00 23.5 3 Sur 16 Sur 0 964.3 -0.3 40
2018-05-17 13:00:00 22.8 0 Calma 12 Sudeste 0 964.7 -0.2 39
2018-05-17 12:00:00 20.4 0 Calma 10 Sur 0 964.7 -0.1 46
2018-05-17 11:00:00 19.5 0 Calma 10 Este 0 964.6 0 48
2018-05-17 10:00:00 17.3 2 Nordeste 7 Nordeste 0 964.9 0.3 55
2018-05-17 09:00:00 13.6 3 Sudeste 10 Sudeste 0 964.8 0.6 71
2018-05-17 08:00:00 11.5 3 Nordeste 11 Nordeste 0 964.6 0.3 80
2018-05-17 07:00:00 11.1 5 Nordeste 13 Norte 0 964.6 -0.2 75
2018-05-17 06:00:00 12.6 4 Nordeste 6 Nordeste 0 964.2 -0.9 69
2018-05-17 05:00:00 13.3 2 Noroeste 12 Norte 0 964.3 -0.5 65
2018-05-17 04:00:00 13.9 2 Sudeste 17 Sur 0 964.8 0.1 64
2018-05-17 03:00:00 14.4 12 Sur 32 Sudeste 0 965.1 0.2 63
2018-05-17 02:00:00 14.3 14 Sudeste 35 Sudeste 0 964.8 0.3 61
2018-05-17 01:00:00 14.7 13 Sudeste 41 Sur 0 964.7 1 59
2018-05-17 00:00:00 15.3 20 Sur 36 Sudeste 0 964.9 1.6 57
2018-05-16 23:00:00 15.1 2 Sudeste 24 Este 0 964.5 1.6 59
2018-05-16 22:00:00 15.9 3 Sudeste 23 Sur 0 963.7 0.6 57
2018-05-16 21:00:00 17.1 9 Sur 36 Sur 0 963.3 -0.1 54
2018-05-16 20:00:00 18.3 17 Sudeste 37 Sudeste 0 962.9 -0.4 52
2018-05-16 19:00:00 19.8 17 Sudeste 31 Sur 0 963.1 -0.5 48
2018-05-16 18:00:00 21.2 14 Sudeste 35 Sudeste 0 963.4 -0.8 46
2018-05-16 17:00:00 21.6 19 Sudeste 39 Sudeste 0 963.3 -1.6 45
2018-05-16 16:00:00 22.9 16 Sudeste 37 Sudeste 0 963.6 -1.9 41
2018-05-16 15:00:00 22.4 18 Sudeste 40 Sudeste 0 964.2 -1.6 41
2018-05-16 14:00:00 21.9 20 Sur 37 Sur 0 964.9 -0.9 44
2018-05-16 13:00:00 20.6 11 Sudeste 28 Sudeste 0 965.5 -0.3 45
2018-05-16 12:00:00 19.4 15 Sudeste 36 Sudeste 0 965.8 0.3 52
2018-05-16 11:00:00 18.2 17 Sudeste 31 Sudeste 0 965.8 0.3 56
2018-05-16 10:00:00 17.2 11 Sudeste 27 Sudeste 0 965.8 0.4 57
2018-05-16 09:00:00 15.7 13 Sur 36 Sudeste 0 965.5 -0.1 55
2018-05-16 08:00:00 14.6 16 Sur 30 Sur 0 965.5 -0.2 57
2018-05-16 07:00:00 13.8 6 Sur 19 Sur 0 965.4 -0.6 59
2018-05-16 06:00:00 13.8 9 Sur 22 Sur 0 965.6 -0.5 65
2018-05-16 05:00:00 12.6 0 Calma 8 Sudeste 0 965.7 -1 62
2018-05-16 04:00:00 13.1 0 Calma 9 Noroeste 0 966 -0.9 56
2018-05-16 03:00:00 15 3 Sudoeste 15 Sur 0 966.1 -1 51
2018-05-16 02:00:00 15.7 3 Sudoeste 15 Sudeste 0 966.7 -0.2 48
2018-05-16 01:00:00 16.2 4 Sur 19 Sur 0 966.9 0.6 45
2018-05-16 00:00:00 16.7 2 Sur 16 Sur 0 967.1 1.4 45
2018-05-15 23:00:00 16.8 2 Sudeste 14 Sur 0 966.9 1.6 44
2018-05-15 22:00:00 17.6 7 Sur 22 Sur 0 966.3 0.9 41
2018-05-15 21:00:00 19.2 9 Sur 22 Sudeste 0 965.7 0 38
2018-05-15 20:00:00 21.2 11 Sudeste 25 Sudeste 0 965.3 -0.9 35
2018-05-15 19:00:00 22.7 11 Sudeste 27 Sur 0 965.4 -1.5 33
2018-05-15 18:00:00 23.1 9 Sur 29 Sudeste 0 965.7 -1.4 32
2018-05-15 17:00:00 23.2 12 Sudeste 28 Sudeste 0 966.2 -1.3 32
2018-05-15 16:00:00 23.2 12 Sur 27 Sudoeste 0 966.9 -1.2 32
2018-05-15 15:00:00 23.4 9 Sur 32 Sur 0 967.1 -1.2 32
2018-05-15 14:00:00 22.9 15 Sudeste 30 Sur 0 967.5 -0.8 32
2018-05-15 13:00:00 22.1 12 Sudeste 30 Sur 0 968.1 -0.1 32
2018-05-15 12:00:00 21.8 12 Sudeste 25 Sudeste 0 968.3 0 33
2018-05-15 11:00:00 20.1 3 Este 10 Nordeste 0 968.3 0 40
2018-05-15 10:00:00 16.3 2 Este 7 Este 0 968.2 0.6 53
2018-05-15 09:00:00 12.5 0 Calma 4 Este 0 968.3 0.9 68
2018-05-15 08:00:00 8.9 0 Calma 5 Norte 0 968.3 0.9 76
2018-05-15 07:00:00 8.7 0 Calma -- -- 0 967.6 0.2 69
2018-05-15 06:00:00 9.3 0 Calma 3 Nordeste 0 967.4 -0.5 67
2018-05-15 05:00:00 11 0 Calma 3 Noroeste 0 967.4 -0.7 58
2018-05-15 04:00:00 12.5 0 Calma 8 Noroeste 0 967.4 -0.8 51
2018-05-15 03:00:00 13.4 0 Calma 7 Oeste 0 967.9 -0.4 48
2018-05-15 02:00:00 13.7 2 Noroeste 8 Noroeste 0 968.1 0.1 48
2018-05-15 01:00:00 14.3 0 Calma 7 Sudoeste 0 968.2 0.7 47
2018-05-15 00:00:00 15.3 0 Calma 7 Oeste 0 968.3 1.1 46
2018-05-14 23:00:00 16.7 0 Calma 5 Sudoeste 0 968 1.1 44
2018-05-14 22:00:00 19.2 0 Calma 8 Noroeste 0 967.5 0.5 40
2018-05-14 21:00:00 21 2 Norte 16 Norte 0 967.2 0.3 36
2018-05-14 20:00:00 22.5 5 Norte 21 Sudeste 0 966.9 -0.2 34
2018-05-14 19:00:00 23.5 5 Norte 24 Noroeste 0 967 -0.6 33
2018-05-14 18:00:00 23.5 5 Norte 22 Noroeste 0 966.9 -1.4 31
2018-05-14 17:00:00 24 4 Noroeste 20 Noroeste 0 967.1 -1.5 30
2018-05-14 16:00:00 23.5 6 Norte 21 Nordeste 0 967.6 -1.7 31
2018-05-14 15:00:00 22.6 7 Noroeste 24 Noroeste 0 968.3 -1.5 32
2018-05-14 14:00:00 22.1 2 Nordeste 18 Este 0 968.6 -1.6 32
2018-05-14 13:00:00 21.6 0 Calma 18 Este 0 969.3 -1.4 33
2018-05-14 12:00:00 19 3 Este 14 Este 0 969.8 -1.1 39
2018-05-14 11:00:00 16.4 2 Sudeste 9 Sudeste 0 970.2 -0.4 46
2018-05-14 10:00:00 12.8 0 Calma 2 Sudeste 0 970.7 0.5 58
2018-05-14 09:00:00 10.5 0 Calma 4 Este 0 970.9 0.5 68
2018-05-14 08:00:00 7.3 0 Calma -- -- 0 970.6 0.1 76
2018-05-14 07:00:00 6.8 0 Calma 8 Nordeste 0 970.2 -0.5 72
2018-05-14 06:00:00 7.4 2 Nordeste 5 Noroeste 0 970.4 -0.8 68
2018-05-14 05:00:00 8.1 0 Calma 2 Sudoeste 0 970.5 -1.2 62
2018-05-14 04:00:00 9.6 0 Calma 12 Noroeste 0 970.7 -1.2 54
2018-05-14 03:00:00 10.8 6 Noroeste 12 Noroeste 0 971.2 -0.7 48
2018-05-14 02:00:00 11.2 5 Noroeste 10 Noroeste 0 971.7 0.1 48
2018-05-14 01:00:00 12.1 0 Calma 18 Noroeste 0 971.9 0.9 46
2018-05-11 20:00:00 22 0 Calma 14 Sudeste 0 968.4 -0.4 52
2018-05-11 19:00:00 22.5 5 Sudeste 17 Sur 0 968.4 -0.8 50
2018-05-11 18:00:00 22.9 4 Sur 21 Sudeste 0 968.4 -1.3 48
2018-05-11 17:00:00 23.5 5 Sudeste 21 Sur 0 968.8 -1.2 47
2018-05-11 16:00:00 24 6 Sur 20 Sur 0 969.2 -1.2 45
2018-05-11 15:00:00 23.6 4 Sudeste 21 Sur 0 969.7 -1 46
2018-05-11 14:00:00 22.4 3 Sur 19 Sur 0 970 -0.7 47
2018-05-11 13:00:00 20.8 3 Sur 15 Sudeste 0 970.4 -0.4 52
2018-05-11 12:00:00 19.9 2 Este 8 Sudeste 0 970.7 0.3 57
2018-05-11 11:00:00 18.1 0 Calma 6 Este 0 970.7 0.9 67
2018-05-11 10:00:00 15.7 0 Calma 5 Este 0 970.8 1.6 75
2018-05-11 09:00:00 12.1 0 Calma 6 Oeste 0 970.4 1.1 89
2018-05-11 08:00:00 10.8 0 Calma 6 Nordeste 0 969.8 1 95
2018-05-11 07:00:00 10.1 0 Calma 0 Calma 0 969.2 0.3 95
2018-05-11 06:00:00 10.8 0 Calma 8 Noroeste 0 969.3 0.3 92
2018-05-11 05:00:00 11.6 0 Calma 5 Oeste 0 968.8 -0.5 89
2018-05-11 04:00:00 12 0 Calma 2 Oeste 0 968.9 -0.7 87
2018-05-11 03:00:00 13.1 0 Calma 0 Calma 0 969 -0.3 84
2018-05-11 02:00:00 13.9 0 Calma 0 Calma 0 969.3 0.2 82
2018-05-11 01:00:00 14.5 0 Calma 0 Calma 0 969.6 1 78
2018-05-11 00:00:00 14.7 0 Calma 4 Sudoeste 0 969.3 1.5 76
2018-05-10 23:00:00 15.2 0 Calma 3 Noroeste 0 969.1 2.5 74
2018-05-10 22:00:00 16.7 2 Noroeste 18 Noroeste 0 968.6 2.3 69
2018-05-10 21:00:00 18.5 10 Noroeste 24 Noroeste 0 967.8 1.4 59
2018-05-10 20:00:00 21.4 9 Noroeste 20 Noroeste 0 966.6 0.1 48
2018-05-10 19:00:00 22.5 7 Noroeste 17 Oeste 0 966.3 -0.6 47
2018-05-10 18:00:00 22.4 8 Noroeste 19 Oeste 0 966.4 -0.7 47
2018-05-10 17:00:00 22.4 7 Oeste 24 Oeste 0 966.5 -0.7 47
2018-05-10 16:00:00 21.8 8 Oeste 23 Oeste 0 966.9 -0.3 50
2018-05-10 15:00:00 20.4 6 Noroeste 18 Oeste 0 967.1 -0.2 54
2018-05-10 14:00:00 19.7 6 Oeste 19 Noroeste 0 967.2 -0.1 56
2018-05-10 13:00:00 18.4 6 Noroeste 18 Noroeste 0 967.2 0 63
2018-05-10 12:00:00 17.4 6 Noroeste 20 Noroeste 0 967.3 0.5 66
2018-05-10 11:00:00 15.6 10 Noroeste 20 Noroeste 0 967.3 1.1 76
2018-05-10 10:00:00 15.4 5 Noroeste 15 Noroeste 0 967.2 1.4 76
2018-05-10 09:00:00 14.3 0 Calma 0 Calma 0 966.8 1 83
2018-05-10 08:00:00 13.8 0 Calma 0 Calma 0 966.2 0.5 85
2018-05-10 07:00:00 13.3 0 Calma 0 Calma 0 965.8 0 86
2018-05-10 06:00:00 13.7 0 Calma 8 Noroeste 0 965.8 -0.3 82
2018-05-10 05:00:00 13.5 0 Calma 8 Norte 0 965.7 -0.4 83
2018-05-10 04:00:00 13.5 0 Calma 8 Noroeste 0 965.8 -0.9 83
2018-05-10 03:00:00 13.6 0 Calma 18 Oeste 0 966.1 -1 83
2018-05-10 02:00:00 13.8 3 Noroeste 13 Noroeste 0 966.1 -0.6 83
2018-05-10 01:00:00 15 6 Noroeste 17 Noroeste 0 966.7 0.5 80
2018-05-10 00:00:00 15.7 5 Noroeste 17 Noroeste 0 967.1 1.1 79
2018-05-09 23:00:00 16 4 Noroeste 17 Oeste 0 966.7 1 79
2018-05-09 22:00:00 16.2 6 Noroeste 17 Noroeste 0 966.2 1 80
2018-05-09 21:00:00 16.6 9 Noroeste 22 Noroeste 0 966 0.7 79
2018-05-09 20:00:00 16.9 12 Noroeste 24 Oeste 0 965.7 0.5 77
2018-05-09 19:00:00 17.9 12 Noroeste 28 Noroeste 0 965.2 -0.2 74
2018-05-09 18:00:00 18.5 9 Noroeste 26 Oeste 0 965.3 -0.2 73
2018-05-09 17:00:00 19.1 13 Noroeste 25 Noroeste 0 965.2 -0.7 68
2018-05-09 16:00:00 20.2 12 Noroeste 24 Oeste 0 965.4 -0.7 63
2018-05-09 15:00:00 20.6 4 Noroeste 18 Noroeste 0 965.5 -1.3 64
2018-05-09 14:00:00 18.1 4 Noroeste 15 Oeste 0 965.9 -0.7 70
2018-05-09 13:00:00 16.9 0 Calma 16 Oeste 0 966.1 -0.1 77
2018-05-09 12:00:00 14.9 3 Noroeste 15 Nordeste 0 966.8 1.2 86
2018-05-09 11:00:00 14.6 4 Norte 16 Nordeste 0 966.6 1.8 87
2018-05-09 10:00:00 14.6 0 Calma 13 Nordeste 0 966.2 2.3 91
2018-05-09 09:00:00 14 6 Noroeste 15 Noroeste 0 965.6 1.9 93
2018-05-09 08:00:00 13.7 4 Noroeste 16 Noroeste 0 964.8 1.1 92
2018-05-09 07:00:00 13.7 0 Calma 6 Noroeste 0 963.9 -0.2 91
2018-05-09 06:00:00 13.8 0 Calma 10 Noroeste 0 963.7 -0.8 93
2018-05-09 05:00:00 14.5 6 Noroeste 9 Noroeste 0 963.7 -1 88
2018-05-09 04:00:00 14.6 0 Calma 6 Nordeste 0 964.1 -1 89
2018-05-09 03:00:00 15.1 0 Calma 0 Calma 0 964.5 -0.9 87
2018-05-09 02:00:00 15.3 0 Calma 6 Noroeste 0 964.7 -0.2 86
2018-05-09 01:00:00 15.9 0 Calma 8 Oeste 0 965.1 0.9 82
2018-05-09 00:00:00 17.1 0 Calma 0 Calma 0 965.4 1.6 78
2018-05-08 23:00:00 17.7 0 Calma 0 Calma 0 964.9 2 74
2018-05-08 22:00:00 19.2 2 Oeste 23 Noroeste 0 964.2 1.4 68
2018-05-08 21:00:00 20.6 8 Oeste 29 Oeste 0 963.8 0.9 61
2018-05-08 20:00:00 21.8 13 Oeste 34 Oeste 0 962.9 -0.2 53
2018-05-08 19:00:00 23.2 11 Noroeste 29 Noroeste 0 962.8 -0.9 50
2018-05-08 18:00:00 22.7 13 Noroeste 28 Noroeste 0 962.9 -1.2 50
2018-05-08 17:00:00 23.1 5 Noroeste 25 Oeste 0.3 963.1 -1.8 52
2018-05-08 16:00:00 24.1 9 Noroeste 21 Norte 0 963.7 -2 46
2018-05-08 15:00:00 23 9 Oeste 23 Oeste 0 964.1 -1.9 51
2018-05-08 14:00:00 22.7 6 Noroeste 22 Noroeste 0 964.9 -1.2 51
2018-05-08 13:00:00 21.4 8 Oeste 19 Oeste 0 965.7 -0.6 52
2018-05-08 12:00:00 20.1 8 Oeste 20 Oeste 0 966 -0.3 57
2018-05-08 11:00:00 18.7 0 Calma 9 Noroeste 0 966.1 0.3 63
2018-05-08 10:00:00 17 0 Calma -- -- -- 966.3 0.3 73
2018-05-08 09:00:00 14 0 Calma 0 Calma 0 966.3 0.7 83
2018-05-08 08:00:00 11.4 0 Calma -- -- 0 965.8 -0.3 92
2018-05-08 07:00:00 10.9 0 Calma 6 Noroeste 0 966 -0.3 92
2018-05-08 06:00:00 11.6 2 Oeste 7 Noroeste 0 965.6 -0.8 88
2018-05-08 05:00:00 11.9 0 Calma 8 Norte 0 966.1 -0.7 86
2018-05-08 04:00:00 12.1 2 Nordeste 5 Nordeste 0 966.3 -0.6 87
2018-05-08 03:00:00 13.2 0 Calma 0 Calma 0 966.4 -0.5 82
2018-05-08 02:00:00 14.2 0 Calma 5 Noroeste 0 966.8 0.2 76
2018-05-08 01:00:00 14.4 0 Calma 6 Oeste 0 966.9 1.3 74
2018-05-08 00:00:00 15.3 0 Calma 8 Sudoeste 0 966.9 1.5 70
2018-05-07 23:00:00 15.5 2 Oeste 9 Oeste 0 966.6 1.6 69
2018-05-07 22:00:00 16.7 2 Sudoeste 12 Sudoeste 0 965.6 0.8 62
2018-05-07 21:00:00 18.1 5 Sur 24 Sur 0 965.4 0.4 56
2018-05-07 20:00:00 19.5 11 Sur 29 Sudeste 0 965 -0.2 50
2018-05-07 19:00:00 22.8 12 Sur 22 Sur 0 964.8 -1 40
2018-05-07 18:00:00 23.8 4 Sudoeste 21 Sur 0 965 -1.3 38
2018-05-07 17:00:00 23.1 2 Sur 13 Sur 0 965.2 -1.8 40
2018-05-07 16:00:00 21.9 3 Oeste 17 Sudoeste 0 965.8 -1.6 43
2018-05-07 15:00:00 21.1 3 Sur 18 Sudoeste 0 966.3 -1.3 46
2018-05-07 14:00:00 19.6 7 Sudoeste 24 Sur 0 967 -0.4 51
2018-05-07 13:00:00 18.6 10 Sur 30 Sudeste 0 967.4 0 57
2018-05-07 12:00:00 18.7 13 Sudeste 33 Sur 0 967.6 0.5 58
2018-05-07 11:00:00 17.9 10 Sur 29 Sudeste 0 967.4 0.7 60
2018-05-07 10:00:00 16.6 14 Sudeste 24 Sudeste 0 967.4 1.2 67
2018-05-07 09:00:00 13.6 0 Calma 6 Noroeste 0 967.1 1 79
2018-05-07 08:00:00 11.4 0 Calma 4 Noroeste 0 966.7 0.7 90
2018-05-07 07:00:00 11.1 0 Calma 10 Norte 0 966.2 0 88
2018-05-07 06:00:00 11.5 3 Nordeste 9 Nordeste 0 966.1 -0.2 87
2018-05-07 05:00:00 12.6 3 Nordeste 9 Nordeste 0 966 -1 81
2018-05-07 04:00:00 14.2 3 Noroeste 21 Sur 0 966.2 -1 74
2018-05-07 03:00:00 14.4 10 Sur 21 Sur 0 966.3 -1 74
2018-05-07 02:00:00 13.4 2 Sudeste 10 Sur 0 967 0 75
2018-05-07 01:00:00 14.7 4 Sur 13 Sur 0 967.2 0.8 70
2018-05-07 00:00:00 15.1 0 Calma 23 Sudoeste 0 967.3 1.3 67
2018-05-06 23:00:00 15.9 10 Sur 29 Sur 0 967 1.5 66
2018-05-06 22:00:00 15.9 6 Sur 23 Sur 0 966.4 0.7 68
2018-05-06 21:00:00 17.1 6 Sur 21 Sur 0 966 0.4 63
2018-05-06 20:00:00 18.4 10 Sur 23 Sur 0 965.5 -0.1 58
2018-05-06 19:00:00 19.2 11 Sudeste 30 Sudeste 0 965.7 -0.5 58
2018-05-06 18:00:00 19.8 8 Sur 22 Sur 0 965.6 -1.1 52
2018-05-06 17:00:00 20.3 8 Sur 27 Sur 0 965.6 -1.5 52
2018-05-06 16:00:00 20.6 8 Sur 30 Sur 0 966.2 -1.2 51
2018-05-06 15:00:00 20 14 Sur 32 Sudeste 0 966.7 -1.1 50
2018-05-06 14:00:00 19.9 13 Sur 36 Sur 0 967.1 -0.9 51
2018-05-06 13:00:00 18.9 17 Sudeste 37 Sur 0 967.4 -0.5 54
2018-05-06 12:00:00 19.8 15 Sudeste 36 Sur 0 967.8 0 57
2018-05-06 11:00:00 17.5 12 Sudeste 37 Sudeste 0 968 0.5 60
2018-05-06 10:00:00 16.6 12 Sudeste 26 Sur 0 967.9 1 62
2018-05-06 09:00:00 14.6 5 Sudoeste 18 Este 0 967.8 0.8 66
2018-05-06 08:00:00 14 8 Sudeste 19 Sudeste 0 967.5 0.5 66
2018-05-06 07:00:00 14 7 Sur 17 Sur 0 966.9 -0.1 64
2018-05-06 06:00:00 13.6 4 Este 14 Sudeste 0 967 -0.5 63
2018-05-06 05:00:00 14.4 4 Este 22 Sur 0 967 -0.5 57
2018-05-06 04:00:00 15 7 Sur 21 Sudeste 0 967 -0.7 54
2018-05-06 03:00:00 15 4 Sur 25 Sur 0 967.5 0 56
2018-05-06 02:00:00 15.1 14 Sur 27 Sur 0 967.5 -0.1 56
2018-05-06 01:00:00 15.6 7 Sudeste 19 Sur 0 967.7 0.4 55
2018-05-06 00:00:00 15.5 0 Calma 11 Noroeste 0 967.5 0.9 58
2018-05-05 23:00:00 16.1 2 Noroeste 19 Sudeste 0 967.6 1.2 58
2018-05-05 22:00:00 17.3 6 Sur 28 Sur 0 967.3 1 56
2018-05-05 21:00:00 17.5 12 Sudeste 26 Sur 0 966.6 0.4 54
2018-05-05 20:00:00 19.2 15 Sudeste 28 Sudeste 0 966.4 0.1 51
2018-05-05 19:00:00 20.4 13 Sur 26 Sudeste 0 966.3 -0.4 48
2018-05-05 18:00:00 20.9 15 Sudeste 24 Sur 0 966.2 -0.8 50
2018-05-05 17:00:00 21.2 12 Sudeste 27 Sudeste 0 966.3 -1.1 48
2018-05-05 16:00:00 21 9 Sudeste 24 Sur 0 966.7 -1.1 49
2018-05-05 15:00:00 20.7 8 Sudeste 24 Sudeste 0 967 -0.9 50
2018-05-05 14:00:00 20.3 12 Sudeste 28 Sur 0 967.4 -0.5 51
2018-05-05 13:00:00 19.6 12 Sudeste 26 Sur 0 967.8 0.1 53
2018-05-05 12:00:00 19 7 Sudeste 19 Sudeste 0 967.9 0.3 55
2018-05-05 11:00:00 17 0 Calma 2 Sudeste 0 967.9 0.7 66
2018-05-05 10:00:00 14.3 0 Calma 6 Este 0 967.7 1.1 77
2018-05-05 09:00:00 10.5 0 Calma 5 Este 0 967.6 1 89
2018-05-05 08:00:00 8.6 0 Calma 3 Oeste 0 967.2 0.7 93
2018-05-05 07:00:00 8.6 0 Calma 4 Sudoeste 0 966.6 0 93
2018-05-05 06:00:00 8.7 0 Calma 5 Nordeste 0 966.6 -0.3 90
2018-05-05 05:00:00 10 0 Calma 6 Norte 0 966.5 -0.4 88
2018-05-05 04:00:00 10.5 0 Calma 7 Sudeste 0 966.6 0 86
2018-05-05 03:00:00 10.5 0 Calma 10 Noroeste 0 966.9 0.2 88
2018-05-05 02:00:00 11.6 4 Nordeste 9 Nordeste 0 966.9 0.7 86
2018-05-05 01:00:00 11.6 0 Calma 8 Noroeste 0 966.6 1 82
2018-05-05 00:00:00 13.7 2 Noroeste 8 Noroeste 0 966.7 1.8 74
2018-05-04 23:00:00 13.9 0 Calma 10 Sur 0 966.2 1.7 74
2018-05-04 22:00:00 14.6 0 Calma 5 Sur 0 965.6 1.4 70
2018-05-04 21:00:00 16.4 2 Sudoeste 13 Sudoeste 0 964.9 0.6 63
2018-05-04 20:00:00 17.5 7 Sudoeste 20 Sudoeste 0 964.5 0.1 59
2018-05-04 19:00:00 17.3 8 Sudoeste 20 Sudoeste 0 964.2 -0.5 64
2018-05-04 18:00:00 17.1 7 Sudoeste 19 Sudoeste 0 964.3 0.5 67
2018-05-04 17:00:00 15.4 5 Sudoeste 15 Sur 0 964.4 1 74
2018-05-04 16:00:00 13.6 3 Sudoeste 27 Sur 1.5 964.7 1.5 85
2018-05-04 15:00:00 16.3 16 Sudeste 33 Sur 0 963.8 0.4 62
2018-05-04 14:00:00 18 7 Sudeste 24 Noroeste 0 963.4 0.1 51
2018-05-04 13:00:00 20.2 0 Calma 16 Oeste 0 963.2 -0.2 48
2018-05-04 12:00:00 18.8 2 Noroeste 13 Noroeste 0 963.4 0.1 59
2018-05-04 11:00:00 16.7 0 Calma 6 Oeste 0 963.3 0.1 66
2018-05-04 10:00:00 15.2 0 Calma 7 Este 0 963.4 0.6 74
2018-05-04 09:00:00 13.1 3 Nordeste 12 Nordeste 0 963.3 0.4 81
2018-05-04 08:00:00 11.7 5 Nordeste 8 Nordeste 0 963.2 0 87
2018-05-04 07:00:00 11 0 Calma 5 Nordeste 0 962.8 -0.1 88
2018-05-04 06:00:00 10.8 0 Calma 4 Noroeste 0 962.9 -0.7 88
2018-05-04 05:00:00 11.5 0 Calma 6 Noroeste 0 963.2 -1.2 83
2018-05-04 04:00:00 12.6 0 Calma 4 Sudoeste 0 962.9 -1.9 78
2018-05-04 03:00:00 12.3 0 Calma 2 Oeste 0 963.6 -1.4 79
2018-05-04 02:00:00 12.9 0 Calma 6 Oeste 0 964.4 -0.2 77
2018-05-04 01:00:00 14.1 3 Noroeste 10 Noroeste 0 964.8 0.8 75
2018-05-04 00:00:00 15 2 Noroeste 10 Noroeste 0 965 1.6 71
2018-05-03 23:00:00 14.8 0 Calma 5 Oeste 0 964.6 2.2 62
2018-05-03 22:00:00 16.4 0 Calma 7 Noroeste 0 964 0.7 50
2018-05-03 21:00:00 18.2 2 Noroeste 17 Noroeste 0 963.4 -0.4 44
2018-05-03 20:00:00 20.7 6 Noroeste 21 Noroeste 0 962.4 -1.7 39
2018-05-03 19:00:00 21.2 6 Noroeste 20 Noroeste 0 963.3 -1.4 38
2018-05-03 18:00:00 20.8 7 Noroeste 22 Noroeste 0 963.8 -1.4 40
2018-05-03 17:00:00 20.7 10 Noroeste 22 Noroeste 0 964.1 -1.9 40
2018-05-03 16:00:00 20.3 6 Noroeste 23 Noroeste 0 964.7 -1.8 41
2018-05-03 15:00:00 19.7 6 Noroeste 25 Norte 0 965.2 -1.3 41
2018-05-03 14:00:00 18.8 4 Norte 19 Nordeste 0 966 -1 41
2018-05-03 13:00:00 18 2 Noroeste 16 Noroeste 0 966.5 -0.6 44
2018-05-03 12:00:00 16.1 3 Nordeste 15 Noroeste 0 966.5 -0.9 49
2018-05-03 11:00:00 13.9 0 Calma 5 Sudeste 0 967 -0.4 57
2018-05-03 10:00:00 10.8 0 Calma 0 Calma 0 967.1 -0.2 70
2018-05-03 09:00:00 9.4 0 Calma 5 Noroeste 0 967.4 0 78
2018-05-03 08:00:00 5.9 0 Calma 3 Oeste 0 967.4 -0.3 89
2018-05-03 07:00:00 4.9 0 Calma 4 Oeste 0 967.3 -0.8 89
2018-05-03 06:00:00 5.7 0 Calma 0 Calma 0 967.4 -1 86
2018-05-03 05:00:00 6.4 0 Calma 3 Noroeste 0 967.7 -1.3 81
2018-05-03 04:00:00 7.6 0 Calma 5 Nordeste 0 968.1 -1 76
2018-05-03 03:00:00 8 4 Nordeste 6 Nordeste 0 968.4 -0.3 77
2018-05-03 02:00:00 8.9 0 Calma 11 Este 0 969 0.3 71
2018-05-03 01:00:00 9.7 0 Calma 0 Calma 0 969.1 1.2 66
2018-05-03 00:00:00 10 0 Calma 4 Oeste 0 968.7 1.1 65
2018-05-02 23:00:00 10.7 0 Calma 10 Oeste 0 968.7 1.4 63
2018-05-02 22:00:00 12.4 5 Oeste 13 Noroeste 0 967.9 0.6 56
2018-05-02 21:00:00 14.6 5 Oeste 23 Noroeste 0 967.6 0.4 47
2018-05-02 20:00:00 17.1 11 Noroeste 22 Noroeste 0 967.3 -0.2 39
2018-05-02 19:00:00 17.8 12 Noroeste 28 Noroeste 0 967.3 -0.5 38
2018-05-02 18:00:00 18.3 9 Noroeste 21 Noroeste 0 967.2 -0.7 38
2018-05-02 17:00:00 18.3 9 Oeste 22 Noroeste 0 967.5 -0.7 39
2018-05-02 16:00:00 16.4 6 Noroeste 19 Noroeste 0 967.8 -0.8 41
2018-05-02 15:00:00 17.1 3 Nordeste 18 Noroeste 0 967.9 -1.1 42
2018-05-02 14:00:00 16.4 3 Noroeste 16 Noroeste 0 968.2 -0.8 42
2018-05-02 13:00:00 15.8 5 Noroeste 16 Noroeste 0 968.6 -0.6 49
2018-05-02 12:00:00 14 0 Calma 12 Nordeste 0 969 0 56
2018-05-02 11:00:00 12.8 0 Calma 9 Este 0 969 0.5 59
2018-05-02 10:00:00 10 0 Calma 0 Calma 0 969.2 0.9 78
2018-05-02 09:00:00 7.5 0 Calma 6 Oeste 0 969 0.7 87
2018-05-02 08:00:00 4.8 0 Calma 6 Noroeste 0 968.5 0 94
2018-05-02 07:00:00 3.8 0 Calma 9 Nordeste 0 968.3 -0.3 94
2018-05-02 06:00:00 5.1 5 Nordeste 13 Norte 0 968.3 -0.6 93
2018-05-02 05:00:00 6 8 Nordeste 12 Norte 0 968.5 -0.4 93
2018-05-02 04:00:00 7 0 Calma 7 Norte 0 968.6 -0.2 86
2018-05-02 03:00:00 6.3 0 Calma 4 Este 0 968.9 0.5 87
2018-05-02 02:00:00 6.4 0 Calma 3 Este 0 968.9 0.8 87
2018-05-02 01:00:00 6.7 0 Calma 6 Norte 0 968.8 1 86
2018-05-02 00:00:00 7.3 0 Calma 8 Oeste 0 968.4 1.3 83
2018-05-01 23:00:00 8.1 0 Calma 9 Noroeste 0 968.1 1.3 78
2018-05-01 22:00:00 9.3 0 Calma 8 Noroeste 0 967.8 0.9 72
2018-05-01 21:00:00 10.7 0 Calma 8 Noroeste 0 967.1 0 63
2018-05-01 20:00:00 11.3 6 Este 18 Oeste 0 966.8 -0.6 62
2018-05-01 19:00:00 12.2 0 Calma 11 Este 0 966.9 -0.7 64
2018-05-01 18:00:00 10.1 0 Calma 27 Este 0 967.1 0.9 70
2018-05-01 17:00:00 8.4 15 Este 43 Nordeste 0.4 967.4 0.7 80
2018-05-01 16:00:00 6.8 21 Nordeste 50 Noroeste 1 967.6 1 80
2018-05-01 15:00:00 12.9 5 Oeste 31 Noroeste 0.5 966.2 -0.9 53
2018-05-01 14:00:00 11.9 12 Oeste 30 Noroeste 0 966.7 -0.5 53
2018-05-01 13:00:00 13.5 10 Oeste 21 Oeste 0 966.6 -0.7 53
2018-05-01 12:00:00 12.8 0 Calma 5 Noroeste 0 967.1 -0.1 64
2018-05-01 11:00:00 11.8 0 Calma 8 Sudeste 0 967.2 0.3 73
2018-05-01 10:00:00 9.8 0 Calma 0 Calma 0 967.3 0.6 88
2018-05-01 09:00:00 6.6 0 Calma -- -- 0 967.2 0.6 94
2018-05-01 08:00:00 5.3 0 Calma 8 Nordeste 0 966.9 0 94
2018-05-01 07:00:00 5.2 0 Calma 0 Calma 0 966.7 -0.5 92
2018-05-01 06:00:00 5.9 0 Calma 0 Calma 0 966.6 -0.9 91
2018-05-01 05:00:00 6.3 0 Calma 8 Norte 0 966.9 -1 90
2018-05-01 04:00:00 7.5 3 Nordeste 9 Nordeste 0 967.2 -0.8 89
2018-05-01 03:00:00 7.3 4 Nordeste 8 Nordeste 0 967.5 -0.4 88
2018-05-01 02:00:00 8.4 4 Oeste 13 Noroeste 0 967.9 0.3 84
2018-05-01 01:00:00 7.8 0 Calma 10 Oeste 0 968 0.7 81
2018-05-01 00:00:00 8.1 0 Calma 8 Noroeste 0 967.9 1.1 77
2018-04-30 23:00:00 8.9 2 Oeste 6 Oeste 0 967.6 1.2 74
2018-04-30 22:00:00 10 0 Calma 8 Noroeste 0 967.3 1 65
2018-04-30 21:00:00 11.8 5 Oeste 23 Oeste 0 966.8 0.6 57
2018-04-30 20:00:00 13.8 10 Oeste 22 Noroeste 0 966.4 0 52
2018-04-30 19:00:00 13.8 9 Oeste 25 Noroeste 0 966.3 -0.4 50
2018-04-30 18:00:00 13.9 9 Noroeste 28 Oeste 0 966.2 -1 48
2018-04-30 17:00:00 14.3 13 Noroeste 28 Noroeste 0 966.4 -1.3 47
2018-04-30 16:00:00 14.6 9 Noroeste 24 Norte 0 966.7 -1.2 47
2018-04-30 15:00:00 13.8 12 Oeste 30 Oeste 0 967.2 -1 47
2018-04-30 14:00:00 14.7 11 Noroeste 29 Noroeste 0 967.7 -0.4 46
2018-04-30 13:00:00 13.3 8 Noroeste 21 Noroeste 0 967.9 -0.3 48
2018-04-30 12:00:00 11.8 7 Noroeste 17 Oeste 0 968.2 0 55
2018-04-30 11:00:00 11.1 5 Oeste 14 Oeste 0 968.1 0.1 60
2018-04-30 10:00:00 9.9 0 Calma 9 Oeste 0 968.2 0.6 74
2018-04-30 09:00:00 8.1 0 Calma 7 Noroeste 0 968.2 0.5 87
2018-04-30 08:00:00 6.7 4 Noroeste 8 Noroeste 0 968 -0.1 90
2018-04-30 07:00:00 6.8 0 Calma 6 Oeste 0 967.6 -0.6 88
2018-04-30 06:00:00 7.4 0 Calma 7 Noroeste 0 967.7 -0.9 87
2018-04-30 05:00:00 8.3 0 Calma 6 Oeste 0 968.1 -1 87
2018-04-30 04:00:00 7.9 2 Oeste 14 Sudoeste 0 968.2 -1.1 86
2018-04-30 03:00:00 8.5 3 Oeste 8 Oeste 0 968.6 -0.7 85
2018-04-30 02:00:00 9 3 Oeste -- -- -- 969.1 -0.1 82
2018-04-30 01:00:00 8.8 0 Calma 8 Sudoeste 0 969.3 0.6 82
2018-04-30 00:00:00 9.3 2 Oeste 8 Oeste 0 969.3 1.2 77
2018-04-29 23:00:00 9.7 0 Calma 7 Sudoeste 0 969.2 1.5 74
2018-04-29 22:00:00 10.7 3 Oeste 20 Oeste 0 968.7 1.1 69
2018-04-29 21:00:00 12 10 Oeste 33 Oeste 0 968.1 0.7 62
2018-04-29 20:00:00 13.8 11 Oeste 33 Sudoeste 0 967.7 0.4 50
2018-04-29 19:00:00 15.4 11 Oeste 32 Sudoeste 0 967.6 -0.3 45
2018-04-29 18:00:00 15.8 12 Oeste 33 Oeste 0 967.4 -0.9 42
2018-04-29 17:00:00 15.4 14 Oeste 34 Oeste 0 967.3 -1.2 44
2018-04-29 16:00:00 15 13 Oeste 34 Oeste 0 967.9 -1.2 46
2018-04-29 15:00:00 13.7 12 Oeste 32 Sudoeste 0 968.3 -0.4 54
2018-04-29 14:00:00 13.9 8 Oeste 30 Sudoeste 0 968.5 0 55
2018-04-29 13:00:00 11.5 9 Oeste 32 Oeste 0 969.1 1.2 69
2018-04-29 12:00:00 12.9 11 Oeste 32 Oeste 0 968.7 1.7 62
2018-04-29 11:00:00 10.3 12 Oeste 29 Sudoeste 0.1 968.5 2.3 68
2018-04-29 10:00:00 9.4 9 Oeste 19 Oeste 0 967.9 2.8 80
2018-04-29 09:00:00 8.4 0 Calma 10 Oeste 0 967 2.3 82
2018-04-29 08:00:00 7.1 4 Oeste 22 Oeste 0 966.2 1.9 89
2018-04-29 07:00:00 7.3 0 Calma 12 Oeste 0 965.1 1 92
2018-04-29 06:00:00 6.9 4 Oeste 23 Oeste 0.9 964.7 0.3 90
2018-04-29 05:00:00 8 3 Oeste 13 Oeste 0.4 964.3 -0.3 92
2018-04-29 04:00:00 8.4 0 Calma 22 Sudoeste 0.3 964.1 -0.5 89
2018-04-29 03:00:00 8.7 4 Noroeste 16 Oeste 0.9 964.4 -0.2 91
2018-04-29 02:00:00 9.4 0 Calma 20 Oeste 0.4 964.6 0.4 86
2018-04-29 01:00:00 10.5 7 Oeste 16 Oeste 0 964.6 0.9 71
2018-04-29 00:00:00 10 7 Oeste 26 Oeste 0 964.6 2.1 71
2018-04-28 23:00:00 11.3 12 Oeste 33 Oeste 0 964.2 2 57
2018-04-28 22:00:00 11.6 8 Oeste 34 Oeste 0 963.7 1.3 53
2018-04-28 21:00:00 12.8 12 Oeste 35 Oeste 0 962.5 -0.1 47
2018-04-28 20:00:00 15.5 11 Oeste 38 Oeste 0 962.2 -0.7 42
2018-04-28 19:00:00 17.2 12 Oeste 35 Oeste 0 962.4 -1.1 43
2018-04-28 18:00:00 17.9 14 Oeste 32 Oeste 0 962.6 -1.4 43
2018-04-28 17:00:00 18.8 13 Oeste 30 Oeste 0 962.9 -1.6 44
2018-04-28 16:00:00 18.6 14 Oeste 32 Oeste 0 963.5 -1.3 46
2018-04-28 15:00:00 18.6 11 Oeste 30 Oeste 0 964 -1.1 50
2018-04-28 14:00:00 18.5 14 Oeste 28 Oeste 0 964.5 -0.6 55
2018-04-28 13:00:00 18.7 10 Oeste 25 Oeste 0 964.8 -0.2 57
2018-04-28 12:00:00 17.6 5 Oeste 21 Oeste 0 965.1 0.4 62
2018-04-28 11:00:00 16.8 10 Noroeste 18 Oeste 0 965.1 0.4 70
2018-04-28 10:00:00 14.3 0 Calma 3 Sur 0 965 0.5 77
2018-04-28 09:00:00 12.1 0 Calma 2 Nordeste 0 964.7 0 84
2018-04-28 08:00:00 9.8 0 Calma 9 Noroeste 0 964.7 -0.5 90
2018-04-28 07:00:00 9.2 0 Calma -- -- 0 964.5 -0.7 89
2018-04-28 06:00:00 10.3 0 Calma 8 Nordeste 0 964.7 -0.8 86
2018-04-28 05:00:00 10.3 0 Calma 5 Nordeste 0 965.2 -0.7 88
2018-04-28 04:00:00 11.1 0 Calma 4 Nordeste 0 965.2 -0.9 83
2018-04-28 03:00:00 12.4 0 Calma 4 Sudoeste 0 965.5 -0.9 75
2018-04-28 02:00:00 12.9 0 Calma 4 Oeste 0 965.9 -0.6 72
2018-04-28 01:00:00 14.1 0 Calma 6 Oeste 0 966.1 0 71
2018-04-28 00:00:00 15 0 Calma 9 Sur 0 966.4 0.9 68
2018-04-27 23:00:00 16 0 Calma 7 Sudoeste 0 966.5 1.3 67
2018-04-27 22:00:00 17.1 0 Calma 9 Oeste 0 966.1 0.8 64
2018-04-27 21:00:00 19.1 0 Calma 22 Oeste 0 965.5 -0.1 55
2018-04-27 20:00:00 21.8 9 Oeste 24 Oeste 0 965.2 -0.4 45
2018-04-27 19:00:00 22.7 11 Oeste 24 Noroeste 0 965.3 -0.7 48
2018-04-27 18:00:00 22.6 8 Noroeste 32 Noroeste 0 965.6 -0.9 54
2018-04-27 17:00:00 22.3 9 Noroeste 22 Oeste 0 965.6 -1.3 54
2018-04-27 16:00:00 22.2 6 Noroeste 18 Noroeste 0 966 -1.4 55
2018-04-27 15:00:00 22.3 5 Oeste 17 Oeste 0 966.5 -1.5 57
2018-04-27 14:00:00 21.8 2 Norte 11 Nordeste 0 966.9 -1 57
2018-04-27 13:00:00 20.5 0 Calma 13 Noroeste 0 967.4 -0.7 59
2018-04-27 12:00:00 19.1 0 Calma 12 Nordeste 0 968 -0.2 64
2018-04-27 11:00:00 18.5 0 Calma 11 Este 0 967.9 -0.4 69
2018-04-27 10:00:00 15.9 0 Calma 8 Este 0 968.1 -0.1 87
2018-04-27 09:00:00 13 0 Calma 0 Calma 0 968.2 0.1 94
2018-04-27 08:00:00 12.4 0 Calma 0 Calma 0 968.3 0.2 94
2018-04-27 07:00:00 12.3 0 Calma 0 Calma 0 968.2 -0.3 95
2018-04-27 06:00:00 12.6 0 Calma 0 Calma 0 968.1 -1 93
2018-04-27 05:00:00 12.8 0 Calma 0 Calma 0 968.1 -1.6 92
2018-04-27 04:00:00 13.3 0 Calma 2 Oeste 0 968.5 -1.5 92
2018-04-27 03:00:00 13.7 0 Calma 5 Noroeste 0 969.1 -1.1 90
2018-04-27 02:00:00 13.9 0 Calma -- -- -- 969.7 -0.1 89
2018-04-27 01:00:00 14.3 0 Calma 9 Sudeste 0 970 0.3 89
2018-04-27 00:00:00 14.8 2 Sur 13 Sur 0 970.2 1 88
2018-04-26 23:00:00 15.1 0 Calma 10 Sur 0 969.8 1.3 88
2018-04-26 22:00:00 15.3 0 Calma 20 Sur 0 969.7 1.2 87
2018-04-26 21:00:00 15.3 4 Sur 19 Sur 3.1 969.2 1.6 87
2018-04-26 20:00:00 16.2 10 Sudeste 33 Sur 0.3 968.5 1.5 77
2018-04-26 19:00:00 17.7 12 Sudeste 35 Sudeste 0 968.5 1.3 64
2018-04-26 18:00:00 19.2 17 Sur 39 Sudeste 0 967.6 0.1 58
2018-04-26 17:00:00 22.4 17 Sudeste 34 Sudeste 0 967 -0.6 49
2018-04-26 16:00:00 23.1 10 Sudeste 27 Sudeste 0 967.2 -0.8 50
2018-04-26 15:00:00 22.8 10 Sur 22 Sudeste 0 967.5 -0.7 53
2018-04-26 14:00:00 22.1 7 Nordeste 19 Nordeste 0 967.6 -0.6 52
2018-04-26 13:00:00 21.2 9 Nordeste 21 Este 0 968 -0.3 58
2018-04-26 12:00:00 19 0 Calma 11 Este 0 968.2 0.1 68
2018-04-26 11:00:00 16.9 0 Calma 8 Este 0 968.2 0.4 76
2018-04-26 10:00:00 15.4 0 Calma 4 Noroeste 0 968.3 1.1 87
2018-04-26 09:00:00 13.2 0 Calma 0 Calma 0 968.1 1 92
2018-04-26 08:00:00 12.7 0 Calma 0 Calma 0.1 967.8 0.6 94
2018-04-26 07:00:00 12.6 0 Calma 4 Nordeste 0 967.2 -0.5 92
2018-04-26 06:00:00 12.9 0 Calma 5 Noroeste 0 967.1 -0.5 91
2018-04-26 05:00:00 13.9 0 Calma 5 Noroeste 0 967.2 -0.6 89
2018-04-26 04:00:00 13.8 0 Calma 10 Nordeste 0.1 967.7 -0.5 91
2018-04-26 03:00:00 13.6 2 Noroeste 7 Oeste 0 967.6 -0.7 88
2018-04-26 02:00:00 13.8 0 Calma 10 Noroeste 0 967.8 -0.4 86
2018-04-26 01:00:00 14.4 0 Calma 7 Noroeste 0 968.2 0.4 78
2018-04-26 00:00:00 14.3 4 Noroeste 7 Noroeste 0 968.3 1.2 77
2018-04-25 23:00:00 15.4 0 Calma 12 Sur 0 968.2 2 71
2018-04-25 22:00:00 16.3 3 Sudoeste 14 Sur 0 967.8 1.8 68
2018-04-25 21:00:00 17.6 4 Sur 15 Sudeste 0 967.1 1.3 64
2018-04-25 20:00:00 19.8 0 Calma 19 Sudeste 0 966.2 0.2 59
2018-04-25 19:00:00 21.4 0 Calma -- -- -- 966 -0.5 52
2018-04-25 18:00:00 22.2 0 Calma 7 Oeste 0 965.8 -1 48
2018-04-25 17:00:00 21.3 2 Noroeste 13 Oeste 0 966 -1.2 52
2018-04-25 16:00:00 21 0 Calma 10 Sudeste 0 966.5 -0.9 55
2018-04-25 15:00:00 20.2 2 Este 12 Este 0 966.8 -0.4 59
2018-04-25 14:00:00 18.4 0 Calma 7 Sur 0 967.2 0.2 68
2018-04-25 13:00:00 18 0 Calma 9 Nordeste 0 967.4 -0.5 67
2018-04-25 12:00:00 16.6 0 Calma 6 Este 0 967.2 -0.2 74
2018-04-25 11:00:00 15.2 3 Oeste 10 Oeste 0 967 0.1 88
2018-04-25 10:00:00 13.5 5 Nordeste 9 Noroeste 0 967.9 1.6 93
2018-04-25 09:00:00 12.8 0 Calma 9 Nordeste 0 967.4 1.2 93
2018-04-25 08:00:00 12.3 0 Calma 5 Noroeste 0 966.9 0.6 94
2018-04-25 07:00:00 12.4 0 Calma 3 Oeste 0 966.3 0 93
2018-04-25 06:00:00 12.7 0 Calma 9 Nordeste 0 966.2 -0.2 93
2018-04-25 05:00:00 12.4 0 Calma 6 Este 0 966.3 -0.2 93
2018-04-25 04:00:00 13.6 0 Calma 5 Noroeste 0 966.3 -0.7 89
2018-04-25 03:00:00 13.9 0 Calma 11 Sur 0 966.4 -0.3 88
2018-04-25 02:00:00 14.3 0 Calma 7 Sudoeste 0 966.5 0.3 86
2018-04-25 01:00:00 14.7 0 Calma 12 Sur 0 967 2 83
2018-04-25 00:00:00 15.3 3 Sur 21 Sudeste 0 966.7 2.5 80
2018-04-24 23:00:00 17 2 Sudeste 19 Sudeste 0 966.2 1.3 81
2018-04-24 22:00:00 17.5 6 Nordeste 12 Nordeste 0 965 0.9 81
2018-04-24 21:00:00 18.7 0 Calma 16 Noroeste 0.2 964.2 0.1 75
2018-04-24 20:00:00 20.2 8 Noroeste 26 Noroeste 0 964.9 0.6 64
2018-04-24 19:00:00 22.4 12 Noroeste 26 Noroeste 0 964.1 -0.6 52
2018-04-24 18:00:00 24.1 0 Calma 15 Oeste 0 964.1 -1.1 44
2018-04-24 17:00:00 23.9 0 Calma 17 Sudoeste 0 964.3 -1.4 41
2018-04-24 16:00:00 23.1 0 Calma 12 Sudoeste 0 964.7 -1.3 44
2018-04-24 15:00:00 22.5 0 Calma 19 Sudeste 0 965.2 -0.7 46
2018-04-24 14:00:00 21.9 5 Sudoeste 20 Sudeste 0 965.7 -0.2 46
2018-04-24 13:00:00 20.8 3 Sur 16 Oeste 0 966 0.4 57
2018-04-24 12:00:00 19.7 0 Calma 6 Sudoeste 0 965.9 0.7 65
2018-04-24 11:00:00 18.2 0 Calma 7 Sudeste 0 965.9 1.3 74
2018-04-24 10:00:00 16.3 0 Calma 4 Oeste 0 965.6 1.7 82
2018-04-24 09:00:00 15.2 0 Calma 6 Noroeste 0 965.2 1.9 87
2018-04-24 08:00:00 14.9 4 Oeste 13 Noroeste 0 964.6 1.3 85
2018-04-24 07:00:00 15.3 0 Calma 9 Nordeste 0 963.9 0.2 75
2018-04-24 06:00:00 18.2 0 Calma 13 Noroeste 0 963.3 -0.9 55
2018-04-24 05:00:00 18.7 4 Nordeste 10 Nordeste 0 963.3 -1.3 53
2018-04-24 04:00:00 17.6 7 Nordeste 14 Nordeste 0 963.7 -0.4 66
2018-04-24 03:00:00 17.2 6 Nordeste 13 Norte 0.5 964.2 -0.3 75
2018-04-24 02:00:00 16.7 9 Nordeste 17 Este 0.1 964.6 -- 83
2018-04-24 01:00:00 16.7 12 Noroeste 20 Noroeste 0.4 964.1 0.5 81
2018-04-24 00:00:00 16.5 5 Oeste 9 Oeste 0 964.5 0.8 80